Main page
METAR-TAF:

METAR-TAF

Airports :

Kédougou Airport

Kédougou, Senegal

latitude: 12-34N, longitude: 012-13W, elevation: 178 m

Current weather observation

The report was made 1 hour and 48 minutes ago, at 06:00 UTC
Wind 6 kt from the West/Southwest
Temperature 30°C
Humidity 43%
Pressure 1010 hPa
Visibility 10 km or more
Few clouds at a height of 1600 ft
Scattered clouds at a height of 13000 ft
Broken clouds at a height of 23000 ft

METAR: GOTK 240600Z 24006KT 9999 FEW016 SCT130 BKN230 30/16 Q1010

Time: 07:48 (07:48 UTC)


TAF: missing

Weather observations and forecasts of more than 4000 airports (METAR and TAF reports).

The available stations are represented by yellow and red dots on the map.

Hover mouse over dot to see the name of the station.

Then click to see weather observations and forecasts.

To change the map : click on the green buttons with a black cross to zoom in, on the green button with a dash to zoom out, or on the green arrows for adjacent maps.


METAR-TAF: